-16.28C
облачно с прояснениями
облачно с прояснениями
Дата и времяТемператураДавление, мм рт.ст.Влажность, %Осадки
МинимумМаксимум
04.12.2022 14:00-16.99C-16.36C77697облачно с прояснениями
04.12.2022 17:00-18.95C-17.98C77799облачно с прояснениями
04.12.2022 20:00-21.55C-21.55C778100переменная облачность
04.12.2022 23:00-23.87C-23.87C780100переменная облачность
05.12.2022 02:00-21.62C-21.62C78099пасмурно
05.12.2022 05:00-17.46C-17.46C77996пасмурно
05.12.2022 08:00-16.12C-16.12C77894пасмурно
05.12.2022 11:00-12.91C-12.91C77896пасмурно
05.12.2022 14:00-10.77C-10.77C77796небольшой снег
05.12.2022 17:00-9.01C-9.01C77796небольшой снег
05.12.2022 20:00-9.77C-9.77C77796пасмурно
05.12.2022 23:00-13.96C-13.96C77796пасмурно
06.12.2022 02:00-16.13C-16.13C77797облачно с прояснениями
06.12.2022 05:00-16.74C-16.74C77798облачно с прояснениями
06.12.2022 08:00-16.69C-16.69C77699пасмурно
06.12.2022 11:00-15.01C-15.01C77697пасмурно
06.12.2022 14:00-15.75C-15.75C77698пасмурно
06.12.2022 17:00-18.36C-18.36C77697пасмурно
06.12.2022 20:00-19.03C-19.03C77597облачно с прояснениями
06.12.2022 23:00-19.35C-19.35C77499облачно с прояснениями
07.12.2022 02:00-18.54C-18.54C77498облачно с прояснениями
07.12.2022 05:00-17.26C-17.26C77295пасмурно
07.12.2022 08:00-18.47C-18.47C77197облачно с прояснениями
07.12.2022 11:00-16.08C-16.08C76995пасмурно
07.12.2022 14:00-15.2C-15.2C76793пасмурно
07.12.2022 17:00-14.58C-14.58C76592пасмурно
07.12.2022 20:00-14.02C-14.02C76391пасмурно
07.12.2022 23:00-13.31C-13.31C76295небольшой снег
08.12.2022 02:00-12.46C-12.46C76195небольшой снег
08.12.2022 05:00-13.48C-13.48C76195небольшой снег
08.12.2022 08:00-15.27C-15.27C76298пасмурно
08.12.2022 11:00-17.2C-17.2C76297пасмурно
08.12.2022 14:00-17.59C-17.59C76295облачно с прояснениями
08.12.2022 17:00-17.85C-17.85C76295облачно с прояснениями
08.12.2022 20:00-17.15C-17.15C76294облачно с прояснениями
08.12.2022 23:00-17.55C-17.55C76294пасмурно
09.12.2022 02:00-15.34C-15.34C76294пасмурно
09.12.2022 05:00-13.16C-13.16C76195небольшой снег
09.12.2022 08:00-13.52C-13.52C76194небольшой снег
09.12.2022 11:00-22.22C-22.22C76488пасмурно
Дата и время наблюдения: 04.12.2022 11:40:33